Airport ID:KCCB
Update Time (UTC):18/10/2018 05:47
Wind Speed (Knots):3
Wind Direction (Magnetic):50
Temperature (°C):18.7
Dew Point (°C):-0.9
Humidity (%):25.8
Altimeter (inHg):30.08
Density Altitude (Feet):
Visibility (Miles):10
Clouds (Hundreds of feet):CLR
Present Weather:
METAR:METAR KCCB 180545Z AUTO 05003KT 10SM CLR 19/M01 A3008 RMK AO2

The data displayed is for advisory purposes only and is not to be used for flight planning or operations.

This page is not automatically refreshed. Reload the page to see current data.